createdAt,value
2023-02-15T00:00:12.508Z,36.67
2023-02-15T00:03:00.346Z,39.40
2023-02-15T00:05:30.591Z,38.05
2023-02-15T00:07:58.477Z,38.72
2023-02-15T00:10:26.683Z,38.13
2023-02-15T00:12:54.524Z,38.15
2023-02-15T00:15:22.928Z,38.58
2023-02-15T00:17:50.795Z,39.72
2023-02-15T00:20:20.448Z,39.20
2023-02-15T00:22:48.319Z,37.85
2023-02-15T00:25:16.511Z,37.65
2023-02-15T00:27:44.406Z,36.80
2023-02-15T00:30:13.132Z,37.83
2023-02-15T00:32:40.995Z,35.25
2023-02-15T00:35:10.766Z,35.72
2023-02-15T00:37:38.764Z,35.60
2023-02-15T00:40:07.981Z,35.53
2023-02-15T00:42:35.968Z,34.47
2023-02-15T00:45:04.268Z,35.03
2023-02-15T00:47:33.538Z,34.83
2023-02-15T00:50:01.972Z,33.25
2023-02-15T00:52:30.076Z,34.60
2023-02-15T00:54:58.408Z,35.92
2023-02-15T00:57:26.246Z,33.45
2023-02-15T00:59:54.509Z,34.47
2023-02-15T01:02:22.524Z,32.47
2023-02-15T01:04:50.789Z,33.05
2023-02-15T01:07:18.734Z,34.40
2023-02-15T01:09:47.009Z,30.52
2023-02-15T01:12:14.994Z,34.00
2023-02-15T01:14:43.343Z,33.33
2023-02-15T01:17:11.442Z,32.70
2023-02-15T01:19:39.885Z,33.65
2023-02-15T01:22:08.399Z,31.90
2023-02-15T01:24:37.637Z,32.92
2023-02-15T01:27:05.628Z,33.22
2023-02-15T01:29:33.885Z,32.90
2023-02-15T01:32:02.092Z,31.90
2023-02-15T01:34:31.129Z,32.65
2023-02-15T01:36:59.028Z,31.42
2023-02-15T01:39:27.633Z,31.70
2023-02-15T01:41:55.661Z,29.95
2023-02-15T01:45:00.177Z,29.55
2023-02-15T01:47:42.292Z,31.10
2023-02-15T01:50:22.641Z,30.05
2023-02-15T01:52:56.957Z,28.52
2023-02-15T01:55:29.759Z,29.25
2023-02-15T01:57:57.736Z,28.35
2023-02-15T02:00:26.457Z,27.88
2023-02-15T02:02:58.467Z,29.30
2023-02-15T02:05:27.476Z,26.98
2023-02-15T02:07:59.847Z,26.95
2023-02-15T02:10:29.396Z,27.88
2023-02-15T02:13:06.066Z,27.50
2023-02-15T02:15:57.735Z,27.45
2023-02-15T02:18:34.626Z,28.92
2023-02-15T02:21:31.669Z,28.23
2023-02-15T02:24:12.647Z,26.35
2023-02-15T02:26:59.094Z,26.40
2023-02-15T02:29:42.199Z,26.35
2023-02-15T02:32:48.817Z,27.73
2023-02-15T02:35:45.930Z,26.58
2023-02-15T02:38:28.736Z,26.27
2023-02-15T02:41:19.028Z,26.60
2023-02-15T02:43:50.509Z,26.80
2023-02-15T02:46:27.581Z,27.88
2023-02-15T02:48:57.889Z,27.48
2023-02-15T02:51:25.945Z,26.20
2023-02-15T02:53:58.293Z,26.60
2023-02-15T02:56:33.197Z,29.40
2023-02-15T02:59:09.007Z,27.27
2023-02-15T03:02:01.027Z,25.58
2023-02-15T03:04:37.716Z,24.63
2023-02-15T03:07:11.466Z,26.77
2023-02-15T03:09:44.478Z,26.45
2023-02-15T03:12:16.369Z,25.52
2023-02-15T03:14:51.649Z,24.15
2023-02-15T03:17:23.959Z,24.73
2023-02-15T03:19:55.999Z,25.10
2023-02-15T03:22:34.710Z,25.45
2023-02-15T03:25:16.300Z,24.70
2023-02-15T03:27:48.774Z,23.65
2023-02-15T03:30:22.781Z,26.00
2023-02-15T03:32:52.967Z,24.10
2023-02-15T03:35:26.004Z,26.75
2023-02-15T03:38:02.164Z,25.73
2023-02-15T03:40:59.804Z,26.25
2023-02-15T03:44:00.574Z,25.60
2023-02-15T03:46:54.084Z,26.67
2023-02-15T03:49:47.381Z,25.73
2023-02-15T03:52:17.712Z,26.97
2023-02-15T03:54:48.834Z,27.02
2023-02-15T03:57:39.766Z,26.70
2023-02-15T04:00:35.983Z,26.15
2023-02-15T04:03:16.292Z,28.50
2023-02-15T04:05:45.553Z,27.30
2023-02-15T04:08:14.279Z,26.42
2023-02-15T04:10:54.493Z,28.05
2023-02-15T04:13:32.981Z,27.33
2023-02-15T04:16:08.153Z,25.98
2023-02-15T04:19:01.300Z,23.75
2023-02-15T04:21:49.539Z,25.75
2023-02-15T04:24:37.008Z,25.95
2023-02-15T04:27:06.838Z,25.75
2023-02-15T04:29:35.268Z,27.33
2023-02-15T04:32:03.782Z,25.70
2023-02-15T04:34:32.126Z,25.98
2023-02-15T04:37:00.016Z,25.90
2023-02-15T04:39:28.269Z,28.15
2023-02-15T04:41:56.218Z,24.58
2023-02-15T04:44:24.524Z,26.73
2023-02-15T04:46:52.297Z,25.35
2023-02-15T04:49:20.543Z,27.52
2023-02-15T04:51:48.573Z,27.27
2023-02-15T04:54:16.838Z,24.73
2023-02-15T04:56:44.780Z,25.95
2023-02-15T04:59:13.566Z,26.63
2023-02-15T05:01:41.436Z,25.20
2023-02-15T05:04:10.568Z,23.88
2023-02-15T05:06:38.424Z,24.48
2023-02-15T05:09:06.657Z,25.52
2023-02-15T05:11:34.633Z,24.35
2023-02-15T05:14:02.886Z,23.45
2023-02-15T05:16:30.911Z,24.58
2023-02-15T05:18:59.455Z,25.35
2023-02-15T05:21:27.605Z,25.85
2023-02-15T05:23:56.035Z,24.92
2023-02-15T05:26:44.237Z,23.70
2023-02-15T05:29:12.518Z,27.13
2023-02-15T05:31:40.635Z,23.20
2023-02-15T05:34:09.072Z,25.08
2023-02-15T05:36:36.912Z,24.48
2023-02-15T05:39:07.043Z,24.98
2023-02-15T05:41:34.861Z,24.17
2023-02-15T05:44:03.115Z,23.70
2023-02-15T05:46:31.044Z,23.70
2023-02-15T05:48:59.381Z,24.70
2023-02-15T05:51:27.291Z,21.65
2023-02-15T05:53:55.684Z,24.02
2023-02-15T05:56:23.555Z,22.83
2023-02-15T05:58:54.288Z,23.38
2023-02-15T06:01:24.125Z,22.70
2023-02-15T06:03:53.318Z,21.08
2023-02-15T06:06:21.182Z,23.52
2023-02-15T06:08:49.830Z,23.92
2023-02-15T06:11:17.795Z,23.20
2023-02-15T06:13:46.076Z,24.85
2023-02-15T06:16:13.970Z,22.75
2023-02-15T06:18:42.382Z,24.38
2023-02-15T06:21:10.348Z,23.25
2023-02-15T06:23:39.053Z,24.23
2023-02-15T06:26:06.905Z,24.90
2023-02-15T06:28:35.242Z,23.30
2023-02-15T06:31:03.128Z,23.65
2023-02-15T06:33:37.527Z,22.80
2023-02-15T06:36:05.484Z,23.38
2023-02-15T06:38:33.870Z,24.38
2023-02-15T06:41:01.805Z,24.10
2023-02-15T06:43:29.909Z,22.95
2023-02-15T06:45:57.863Z,23.00
2023-02-15T06:48:26.222Z,22.77
2023-02-15T06:50:54.071Z,24.92
2023-02-15T06:53:22.231Z,23.92
2023-02-15T06:55:50.042Z,25.58
2023-02-15T06:58:18.273Z,23.90
2023-02-15T07:00:46.192Z,24.20
2023-02-15T07:03:16.115Z,27.25
2023-02-15T07:05:44.932Z,24.98
2023-02-15T07:08:13.199Z,24.35
2023-02-15T07:10:45.018Z,23.27
2023-02-15T07:13:13.206Z,24.55
2023-02-15T07:15:41.109Z,24.48
2023-02-15T07:18:10.541Z,26.80
2023-02-15T07:20:39.270Z,27.75
2023-02-15T07:23:07.466Z,26.58
2023-02-15T07:25:36.097Z,27.92
2023-02-15T07:28:05.264Z,26.77
2023-02-15T07:30:33.236Z,25.27
2023-02-15T07:33:39.832Z,26.33
2023-02-15T07:36:08.311Z,29.77
2023-02-15T07:38:38.302Z,27.90
2023-02-15T07:41:12.681Z,30.08
2023-02-15T07:43:43.447Z,27.83
2023-02-15T07:46:14.463Z,28.40
2023-02-15T07:48:43.417Z,29.48
2023-02-15T07:51:12.805Z,26.70
2023-02-15T07:53:41.675Z,28.38
2023-02-15T07:56:13.923Z,30.42
2023-02-15T07:58:51.862Z,28.70
2023-02-15T08:01:36.429Z,32.13
2023-02-15T08:04:07.555Z,34.50
2023-02-15T08:06:37.224Z,35.30
2023-02-15T08:09:08.588Z,35.80
2023-02-15T08:11:38.810Z,34.92
2023-02-15T08:14:13.157Z,32.75
2023-02-15T08:16:54.162Z,37.28
2023-02-15T08:19:28.013Z,34.72
2023-02-15T08:21:58.561Z,34.75
2023-02-15T08:24:30.348Z,34.40
2023-02-15T08:26:59.601Z,33.15
2023-02-15T08:29:29.562Z,31.60
2023-02-15T08:32:03.389Z,31.10
2023-02-15T08:34:35.667Z,32.55
2023-02-15T08:37:03.837Z,30.15
2023-02-15T08:39:32.213Z,29.38
2023-02-15T08:42:00.431Z,30.10
2023-02-15T08:44:28.872Z,32.42
2023-02-15T08:46:59.855Z,29.70
2023-02-15T08:49:28.042Z,30.00
2023-02-15T08:51:55.914Z,31.67
2023-02-15T08:54:24.457Z,33.00
2023-02-15T08:56:52.604Z,30.98
2023-02-15T08:59:23.478Z,32.25
2023-02-15T09:01:53.087Z,31.83
2023-02-15T09:04:22.137Z,31.00
2023-02-15T09:06:51.043Z,34.22
2023-02-15T09:09:20.355Z,32.67
2023-02-15T09:11:55.833Z,31.95
2023-02-15T09:14:28.142Z,32.88
2023-02-15T09:16:56.611Z,34.38
2023-02-15T09:19:25.832Z,33.53
2023-02-15T09:21:54.852Z,35.30
2023-02-15T09:24:22.791Z,36.08
2023-02-15T09:26:51.163Z,40.60
2023-02-15T09:29:20.041Z,40.58
2023-02-15T09:31:51.258Z,40.25
2023-02-15T09:34:22.618Z,38.42
2023-02-15T09:36:52.220Z,43.85
2023-02-15T09:39:25.412Z,44.08
2023-02-15T09:41:56.224Z,50.92
2023-02-15T09:44:33.204Z,52.20
2023-02-15T09:47:07.576Z,54.95
2023-02-15T09:49:44.173Z,55.10
2023-02-15T09:52:12.296Z,45.25
2023-02-15T09:55:09.748Z,47.03
2023-02-15T09:57:54.879Z,41.88
2023-02-15T10:00:51.020Z,42.03
2023-02-15T10:03:40.591Z,43.67
2023-02-15T10:06:33.666Z,44.17
2023-02-15T10:09:20.344Z,43.50
2023-02-15T10:11:54.590Z,40.95
2023-02-15T10:14:41.241Z,41.38
2023-02-15T10:17:27.347Z,41.03
2023-02-15T10:20:12.416Z,38.95
2023-02-15T10:22:55.116Z,40.30
2023-02-15T10:25:41.542Z,37.47
2023-02-15T10:28:28.010Z,37.35
2023-02-15T10:31:09.398Z,33.08
2023-02-15T10:33:42.483Z,32.40
2023-02-15T10:36:43.182Z,32.67
2023-02-15T10:39:23.271Z,32.13
2023-02-15T10:42:00.337Z,29.90
2023-02-15T10:44:55.962Z,30.13
2023-02-15T10:47:47.163Z,32.33
2023-02-15T10:50:38.450Z,31.95
2023-02-15T10:53:41.635Z,30.60
2023-02-15T10:56:42.728Z,30.35
2023-02-15T10:59:47.062Z,30.67
2023-02-15T11:02:38.060Z,29.45
2023-02-15T11:05:27.330Z,28.80
2023-02-15T11:08:00.621Z,29.67
2023-02-15T11:10:53.093Z,31.75
2023-02-15T11:13:25.351Z,32.92
2023-02-15T11:15:58.823Z,32.58
2023-02-15T11:18:33.924Z,31.88
2023-02-15T11:21:34.060Z,31.85
2023-02-15T11:24:03.198Z,32.22
2023-02-15T11:26:42.731Z,33.20
2023-02-15T11:29:39.960Z,32.28
2023-02-15T11:32:14.139Z,32.03
2023-02-15T11:34:59.580Z,33.33
2023-02-15T11:37:38.145Z,32.90
2023-02-15T11:40:16.278Z,32.50
2023-02-15T11:42:45.780Z,32.10
2023-02-15T11:45:32.148Z,33.17
2023-02-15T11:48:01.606Z,33.47
2023-02-15T11:50:32.195Z,31.85
2023-02-15T11:53:05.816Z,31.08
2023-02-15T11:55:36.311Z,31.95
2023-02-15T11:58:17.806Z,31.88
2023-02-15T12:00:49.151Z,32.70
2023-02-15T12:03:23.604Z,29.98
2023-02-15T12:05:58.446Z,28.52
2023-02-15T12:08:34.897Z,27.27
2023-02-15T12:11:13.392Z,26.98
2023-02-15T12:14:02.096Z,26.33
2023-02-15T12:16:35.781Z,25.60
2023-02-15T12:19:04.256Z,25.80
2023-02-15T12:21:40.978Z,25.80
2023-02-15T12:24:22.863Z,24.80
2023-02-15T12:27:38.336Z,25.17
2023-02-15T12:30:25.084Z,23.90
2023-02-15T12:32:54.359Z,24.98
2023-02-15T12:35:36.854Z,24.88
2023-02-15T12:38:26.792Z,24.70
2023-02-15T12:41:27.674Z,24.52
2023-02-15T12:44:16.227Z,25.60
2023-02-15T12:47:02.601Z,25.65
2023-02-15T12:49:39.771Z,24.20
2023-02-15T12:52:23.190Z,24.70
2023-02-15T12:54:51.818Z,26.45
2023-02-15T12:57:34.137Z,23.30
2023-02-15T13:00:25.744Z,22.27
2023-02-15T13:02:56.580Z,24.75
2023-02-15T13:05:45.118Z,22.77
2023-02-15T13:08:18.063Z,23.30
2023-02-15T13:11:05.157Z,24.60
2023-02-15T13:13:37.504Z,23.67
2023-02-15T13:16:15.313Z,27.08
2023-02-15T13:18:48.473Z,23.88
2023-02-15T13:21:37.751Z,24.48
2023-02-15T13:24:22.396Z,25.52
2023-02-15T13:26:51.023Z,25.60
2023-02-15T13:29:24.942Z,23.90
2023-02-15T13:31:54.924Z,22.50
2023-02-15T13:34:25.906Z,22.17
2023-02-15T13:37:31.486Z,21.95
2023-02-15T13:40:09.403Z,23.52
2023-02-15T13:42:54.303Z,22.08
2023-02-15T13:45:37.702Z,23.38
2023-02-15T13:48:46.869Z,22.77
2023-02-15T13:51:46.395Z,21.35
2023-02-15T13:54:33.424Z,23.83
2023-02-15T13:57:27.454Z,24.10
2023-02-15T14:00:00.036Z,22.42
2023-02-15T14:02:28.144Z,21.25
2023-02-15T14:05:32.058Z,20.77
2023-02-15T14:08:10.023Z,18.13
2023-02-15T14:10:58.372Z,18.38
2023-02-15T14:13:45.244Z,21.48
2023-02-15T14:16:30.572Z,21.63
2023-02-15T14:19:24.999Z,25.67
2023-02-15T14:22:34.704Z,24.55
2023-02-15T14:25:27.402Z,28.15
2023-02-15T14:28:17.822Z,26.33
2023-02-15T14:30:50.362Z,28.00
2023-02-15T14:33:34.765Z,28.73
2023-02-15T14:36:07.379Z,27.55
2023-02-15T14:38:57.174Z,27.38
2023-02-15T14:41:43.796Z,27.10
2023-02-15T14:44:32.274Z,26.70
2023-02-15T14:47:19.826Z,27.35
2023-02-15T14:49:47.865Z,28.63
2023-02-15T14:52:16.283Z,27.73
2023-02-15T14:54:46.992Z,29.92
2023-02-15T14:57:15.101Z,31.10
2023-02-15T14:59:58.606Z,32.65
2023-02-15T15:02:51.014Z,32.63
2023-02-15T15:05:36.140Z,33.72
2023-02-15T15:08:06.620Z,32.95
2023-02-15T15:10:43.298Z,40.13
2023-02-15T15:13:33.514Z,41.97
2023-02-15T15:16:39.710Z,36.78
2023-02-15T15:19:11.833Z,37.90
2023-02-15T15:21:51.850Z,33.95
2023-02-15T15:24:38.691Z,34.13
2023-02-15T15:27:41.301Z,40.03
2023-02-15T15:30:15.532Z,40.25
2023-02-15T15:33:13.027Z,42.78
2023-02-15T15:36:08.591Z,43.58
2023-02-15T15:38:39.208Z,44.05
2023-02-15T15:41:34.555Z,43.15
2023-02-15T15:44:20.801Z,45.00
2023-02-15T15:47:17.864Z,46.15
2023-02-15T15:49:45.849Z,45.65
2023-02-15T15:52:19.937Z,47.33
2023-02-15T15:54:51.368Z,48.20
2023-02-15T15:57:33.490Z,48.70
2023-02-15T16:00:01.401Z,47.20
2023-02-15T16:02:29.745Z,47.13
2023-02-15T16:05:10.620Z,49.03
2023-02-15T16:07:42.311Z,46.45
2023-02-15T16:10:26.981Z,49.90
2023-02-15T16:12:56.036Z,49.47
2023-02-15T16:15:27.489Z,51.08
2023-02-15T16:17:59.107Z,51.45
2023-02-15T16:20:35.317Z,50.67
2023-02-15T16:23:15.885Z,49.47
2023-02-15T16:25:55.520Z,49.10
2023-02-15T16:28:24.217Z,49.03
2023-02-15T16:31:18.586Z,49.10
2023-02-15T16:33:47.318Z,49.97
2023-02-15T16:36:24.308Z,48.53
2023-02-15T16:38:52.433Z,50.60
2023-02-15T16:41:32.310Z,49.05
2023-02-15T16:44:08.905Z,51.53
2023-02-15T16:46:45.085Z,50.08
2023-02-15T16:49:28.827Z,51.72
2023-02-15T16:52:07.086Z,50.15
2023-02-15T16:54:36.590Z,49.28
2023-02-15T16:57:04.737Z,48.20
2023-02-15T16:59:45.599Z,47.47
2023-02-15T17:02:40.204Z,45.92
2023-02-15T17:05:18.696Z,43.00
2023-02-15T17:08:15.895Z,45.47
2023-02-15T17:11:05.689Z,43.17
2023-02-15T17:13:33.886Z,43.63
2023-02-15T17:16:02.471Z,44.53
2023-02-15T17:18:34.060Z,43.80
2023-02-15T17:21:13.411Z,45.00
2023-02-15T17:23:44.376Z,43.50
2023-02-15T17:26:25.155Z,45.72
2023-02-15T17:29:00.326Z,44.45
2023-02-15T17:31:34.209Z,47.80
2023-02-15T17:34:04.057Z,46.63
2023-02-15T17:36:33.058Z,47.35
2023-02-15T17:39:07.695Z,52.03
2023-02-15T17:41:38.517Z,48.25
2023-02-15T17:44:08.907Z,50.08
2023-02-15T17:46:38.629Z,50.08
2023-02-15T17:49:07.000Z,51.67
2023-02-15T17:51:36.646Z,49.90
2023-02-15T17:54:23.165Z,50.80
2023-02-15T17:56:51.439Z,54.15
2023-02-15T17:59:19.433Z,58.42
2023-02-15T18:02:08.393Z,55.63
2023-02-15T18:04:56.332Z,57.10
2023-02-15T18:07:43.525Z,56.95
2023-02-15T18:10:35.510Z,53.10
2023-02-15T18:13:04.203Z,54.03
2023-02-15T18:15:32.238Z,53.50
2023-02-15T18:18:00.564Z,51.33
2023-02-15T18:20:35.031Z,50.03
2023-02-15T18:23:03.427Z,48.38
2023-02-15T18:25:31.351Z,47.30
2023-02-15T18:27:59.576Z,47.40
2023-02-15T18:30:27.795Z,49.15
2023-02-15T18:32:58.170Z,51.88
2023-02-15T18:35:30.133Z,52.90
2023-02-15T18:38:01.205Z,47.88
2023-02-15T18:40:29.666Z,48.88
2023-02-15T18:42:57.959Z,46.85
2023-02-15T18:45:33.307Z,46.83
2023-02-15T18:48:02.224Z,46.10
2023-02-15T18:50:33.930Z,42.90
2023-02-15T18:53:04.575Z,43.92
2023-02-15T18:55:33.965Z,44.47
2023-02-15T18:58:02.736Z,44.75
2023-02-15T19:00:35.200Z,44.58
2023-02-15T19:03:03.822Z,49.53
2023-02-15T19:05:33.354Z,47.45
2023-02-15T19:08:02.844Z,48.83
2023-02-15T19:10:33.314Z,47.92
2023-02-15T19:13:01.819Z,46.75
2023-02-15T19:15:30.759Z,47.67
2023-02-15T19:17:59.135Z,44.75
2023-02-15T19:20:34.295Z,45.55
2023-02-15T19:23:03.234Z,45.53
2023-02-15T19:25:34.506Z,43.58
2023-02-15T19:28:16.710Z,44.03
2023-02-15T19:30:45.015Z,43.25
2023-02-15T19:33:19.300Z,41.72
2023-02-15T19:35:53.348Z,43.13
2023-02-15T19:38:27.230Z,44.47
2023-02-15T19:41:02.496Z,42.13
2023-02-15T19:43:31.333Z,41.38
2023-02-15T19:45:59.897Z,43.40
2023-02-15T19:48:29.180Z,46.47
2023-02-15T19:50:58.093Z,44.28
2023-02-15T19:53:29.407Z,43.03
2023-02-15T19:55:58.725Z,41.63
2023-02-15T19:58:28.176Z,41.67
2023-02-15T20:00:57.365Z,43.33
2023-02-15T20:03:27.526Z,45.30
2023-02-15T20:05:56.874Z,45.78
2023-02-15T20:08:26.591Z,42.95
2023-02-15T20:10:55.365Z,41.45
2023-02-15T20:13:24.146Z,44.13
2023-02-15T20:15:53.466Z,40.88
2023-02-15T20:18:22.984Z,43.65
2023-02-15T20:20:54.576Z,43.10
2023-02-15T20:23:40.019Z,43.55
2023-02-15T20:26:19.540Z,40.63
2023-02-15T20:28:49.914Z,41.08
2023-02-15T20:31:21.764Z,41.97
2023-02-15T20:33:51.590Z,41.95
2023-02-15T20:36:24.017Z,41.15
2023-02-15T20:38:54.214Z,41.78
2023-02-15T20:41:38.651Z,40.65
2023-02-15T20:44:25.139Z,41.20
2023-02-15T20:46:58.558Z,40.75
2023-02-15T20:49:27.873Z,40.38
2023-02-15T20:51:57.288Z,41.03
2023-02-15T20:54:29.192Z,42.90
2023-02-15T20:56:57.405Z,42.28
2023-02-15T20:59:32.077Z,42.10
2023-02-15T21:02:02.878Z,40.10
2023-02-15T21:04:33.756Z,44.85
2023-02-15T21:07:01.773Z,42.00
2023-02-15T21:09:30.146Z,43.13
2023-02-15T21:12:01.506Z,43.10
2023-02-15T21:14:29.732Z,42.80
2023-02-15T21:16:57.723Z,45.15
2023-02-15T21:19:26.057Z,44.30
2023-02-15T21:21:54.342Z,44.58
2023-02-15T21:24:26.120Z,43.13
2023-02-15T21:26:55.660Z,43.20
2023-02-15T21:29:27.100Z,44.08
2023-02-15T21:31:55.230Z,41.70
2023-02-15T21:34:23.652Z,44.03
2023-02-15T21:36:51.551Z,42.65
2023-02-15T21:39:23.902Z,43.95
2023-02-15T21:42:12.254Z,43.30
2023-02-15T21:44:59.105Z,42.85
2023-02-15T21:47:50.774Z,41.38
2023-02-15T21:50:40.960Z,41.85
2023-02-15T21:53:18.418Z,42.88
2023-02-15T21:55:46.522Z,42.50
2023-02-15T21:58:20.711Z,44.67
2023-02-15T22:00:49.448Z,44.28
2023-02-15T22:03:17.356Z,41.70
2023-02-15T22:05:45.392Z,42.65
2023-02-15T22:08:14.388Z,41.25
2023-02-15T22:10:43.401Z,41.97
2023-02-15T22:13:19.937Z,42.38
2023-02-15T22:15:48.142Z,42.50
2023-02-15T22:18:25.178Z,40.42
2023-02-15T22:20:54.694Z,42.83
2023-02-15T22:23:23.778Z,44.97
2023-02-15T22:25:58.653Z,41.03
2023-02-15T22:28:35.872Z,44.35
2023-02-15T22:31:06.829Z,42.95
2023-02-15T22:33:35.116Z,45.03
2023-02-15T22:36:04.152Z,40.75
2023-02-15T22:38:32.568Z,43.20
2023-02-15T22:41:04.670Z,43.17
2023-02-15T22:43:41.405Z,41.15
2023-02-15T22:46:19.177Z,40.42
2023-02-15T22:48:48.448Z,44.53
2023-02-15T22:51:20.242Z,41.58
2023-02-15T22:53:49.902Z,43.10
2023-02-15T22:56:42.258Z,40.05
2023-02-15T22:59:30.032Z,37.78
2023-02-15T23:01:58.407Z,39.40
2023-02-15T23:04:29.324Z,39.10
2023-02-15T23:07:00.759Z,36.85
2023-02-15T23:09:28.478Z,38.10
2023-02-15T23:11:57.342Z,37.10
2023-02-15T23:14:34.671Z,36.33
2023-02-15T23:17:03.037Z,37.97
2023-02-15T23:19:30.812Z,38.00
2023-02-15T23:21:58.799Z,39.13
2023-02-15T23:24:34.814Z,36.72
2023-02-15T23:27:21.794Z,34.55
2023-02-15T23:29:49.611Z,34.20
2023-02-15T23:32:17.863Z,35.28
2023-02-15T23:34:45.684Z,31.42
2023-02-15T23:37:15.695Z,33.13
2023-02-15T23:40:02.394Z,31.45
2023-02-15T23:42:33.818Z,33.53
2023-02-15T23:45:02.716Z,34.25
2023-02-15T23:47:52.265Z,35.20
2023-02-15T23:50:23.164Z,36.30
2023-02-15T23:52:52.674Z,39.50
2023-02-15T23:55:21.433Z,34.92
2023-02-15T23:57:50.197Z,35.15
